sensor_id;sensor_type;location;lat;lon;timestamp;P1;durP1;ratioP1;P2;durP2;ratioP2
21138;SDS011;10727;43.600;1.444;2023-04-16T00:00:00;4.75;;;1.70;;
21138;SDS011;10727;43.600;1.444;2023-04-16T00:03:15;7.72;;;2.13;;
21138;SDS011;10727;43.600;1.444;2023-04-16T00:06:21;9.43;;;1.90;;
21138;SDS011;10727;43.600;1.444;2023-04-16T00:09:26;12.20;;;4.35;;
21138;SDS011;10727;43.600;1.444;2023-04-16T00:12:32;23.30;;;13.05;;
21138;SDS011;10727;43.600;1.444;2023-04-16T00:15:38;22.52;;;12.40;;
21138;SDS011;10727;43.600;1.444;2023-04-16T00:18:44;14.15;;;9.45;;
21138;SDS011;10727;43.600;1.444;2023-04-16T00:21:50;35.20;;;20.10;;
21138;SDS011;10727;43.600;1.444;2023-04-16T00:24:54;16.83;;;9.32;;
21138;SDS011;10727;43.600;1.444;2023-04-16T00:27:59;31.67;;;18.00;;
21138;SDS011;10727;43.600;1.444;2023-04-16T00:31:05;22.83;;;12.80;;
21138;SDS011;10727;43.600;1.444;2023-04-16T00:34:11;19.15;;;9.27;;
21138;SDS011;10727;43.600;1.444;2023-04-16T00:37:16;13.75;;;6.57;;
21138;SDS011;10727;43.600;1.444;2023-04-16T00:40:21;21.42;;;11.65;;
21138;SDS011;10727;43.600;1.444;2023-04-16T00:43:26;10.35;;;4.93;;
21138;SDS011;10727;43.600;1.444;2023-04-16T00:46:32;7.97;;;1.95;;
21138;SDS011;10727;43.600;1.444;2023-04-16T00:49:39;3.78;;;1.63;;
21138;SDS011;10727;43.600;1.444;2023-04-16T00:52:45;5.82;;;1.60;;
21138;SDS011;10727;43.600;1.444;2023-04-16T00:55:50;5.05;;;1.50;;
21138;SDS011;10727;43.600;1.444;2023-04-16T00:58:55;3.80;;;1.45;;
21138;SDS011;10727;43.600;1.444;2023-04-16T01:02:00;8.00;;;1.90;;
21138;SDS011;10727;43.600;1.444;2023-04-16T01:05:07;5.70;;;2.15;;
21138;SDS011;10727;43.600;1.444;2023-04-16T01:08:14;3.80;;;1.55;;
21138;SDS011;10727;43.600;1.444;2023-04-16T01:11:19;11.68;;;4.38;;
21138;SDS011;10727;43.600;1.444;2023-04-16T01:14:24;52.22;;;28.92;;
21138;SDS011;10727;43.600;1.444;2023-04-16T01:17:29;44.63;;;26.67;;
21138;SDS011;10727;43.600;1.444;2023-04-16T01:20:35;7.43;;;3.03;;
21138;SDS011;10727;43.600;1.444;2023-04-16T01:23:41;6.97;;;1.73;;
21138;SDS011;10727;43.600;1.444;2023-04-16T01:26:46;7.90;;;1.60;;
21138;SDS011;10727;43.600;1.444;2023-04-16T01:29:51;7.75;;;1.60;;
21138;SDS011;10727;43.600;1.444;2023-04-16T01:33:03;6.22;;;1.58;;
21138;SDS011;10727;43.600;1.444;2023-04-16T01:36:11;6.40;;;1.30;;
21138;SDS011;10727;43.600;1.444;2023-04-16T01:38:49;42.72;;;21.05;;
21138;SDS011;10727;43.600;1.444;2023-04-16T01:41:55;39.88;;;21.52;;
21138;SDS011;10727;43.600;1.444;2023-04-16T01:45:00;42.72;;;27.45;;
21138;SDS011;10727;43.600;1.444;2023-04-16T01:48:06;52.42;;;30.58;;
21138;SDS011;10727;43.600;1.444;2023-04-16T01:51:12;15.35;;;6.03;;
21138;SDS011;10727;43.600;1.444;2023-04-16T01:54:17;4.97;;;1.80;;
21138;SDS011;10727;43.600;1.444;2023-04-16T01:57:22;8.95;;;1.80;;
21138;SDS011;10727;43.600;1.444;2023-04-16T02:00:29;33.35;;;16.13;;
21138;SDS011;10727;43.600;1.444;2023-04-16T02:03:35;17.70;;;9.38;;
21138;SDS011;10727;43.600;1.444;2023-04-16T02:06:42;32.47;;;16.77;;
21138;SDS011;10727;43.600;1.444;2023-04-16T02:09:48;19.38;;;10.10;;
21138;SDS011;10727;43.600;1.444;2023-04-16T02:12:53;6.40;;;2.00;;
21138;SDS011;10727;43.600;1.444;2023-04-16T02:15:58;5.30;;;1.58;;
21138;SDS011;10727;43.600;1.444;2023-04-16T02:19:24;5.60;;;1.75;;
21138;SDS011;10727;43.600;1.444;2023-04-16T02:22:31;7.75;;;1.60;;
21138;SDS011;10727;43.600;1.444;2023-04-16T02:25:37;7.72;;;1.90;;
21138;SDS011;10727;43.600;1.444;2023-04-16T02:28:44;7.30;;;1.70;;
21138;SDS011;10727;43.600;1.444;2023-04-16T02:31:50;9.80;;;1.60;;
21138;SDS011;10727;43.600;1.444;2023-04-16T02:34:55;7.40;;;2.00;;
21138;SDS011;10727;43.600;1.444;2023-04-16T02:38:02;8.63;;;1.65;;
21138;SDS011;10727;43.600;1.444;2023-04-16T02:41:08;9.88;;;1.58;;
21138;SDS011;10727;43.600;1.444;2023-04-16T02:44:13;5.50;;;1.67;;
21138;SDS011;10727;43.600;1.444;2023-04-16T02:47:18;11.02;;;1.98;;
21138;SDS011;10727;43.600;1.444;2023-04-16T02:50:23;8.73;;;1.85;;
21138;SDS011;10727;43.600;1.444;2023-04-16T02:53:30;6.80;;;1.40;;
21138;SDS011;10727;43.600;1.444;2023-04-16T02:56:35;5.47;;;1.88;;
21138;SDS011;10727;43.600;1.444;2023-04-16T02:59:40;8.23;;;1.67;;
21138;SDS011;10727;43.600;1.444;2023-04-16T03:02:45;6.90;;;1.48;;
21138;SDS011;10727;43.600;1.444;2023-04-16T03:05:50;6.43;;;1.70;;
21138;SDS011;10727;43.600;1.444;2023-04-16T03:08:56;6.70;;;1.65;;
21138;SDS011;10727;43.600;1.444;2023-04-16T03:12:01;8.20;;;1.75;;
21138;SDS011;10727;43.600;1.444;2023-04-16T03:15:07;8.50;;;1.75;;
21138;SDS011;10727;43.600;1.444;2023-04-16T03:18:12;3.40;;;1.33;;
21138;SDS011;10727;43.600;1.444;2023-04-16T03:21:17;7.20;;;1.48;;
21138;SDS011;10727;43.600;1.444;2023-04-16T03:24:24;6.22;;;1.65;;
21138;SDS011;10727;43.600;1.444;2023-04-16T03:27:30;11.00;;;1.88;;
21138;SDS011;10727;43.600;1.444;2023-04-16T03:30:35;7.22;;;1.67;;
21138;SDS011;10727;43.600;1.444;2023-04-16T03:33:41;4.35;;;1.45;;
21138;SDS011;10727;43.600;1.444;2023-04-16T03:36:47;4.55;;;1.38;;
21138;SDS011;10727;43.600;1.444;2023-04-16T03:39:54;7.30;;;1.88;;
21138;SDS011;10727;43.600;1.444;2023-04-16T03:42:59;7.00;;;1.85;;
21138;SDS011;10727;43.600;1.444;2023-04-16T03:46:05;6.28;;;1.30;;
21138;SDS011;10727;43.600;1.444;2023-04-16T03:49:10;7.82;;;1.88;;
21138;SDS011;10727;43.600;1.444;2023-04-16T03:52:16;7.20;;;1.50;;
21138;SDS011;10727;43.600;1.444;2023-04-16T03:55:22;8.85;;;1.42;;
21138;SDS011;10727;43.600;1.444;2023-04-16T03:58:27;11.98;;;1.92;;
21138;SDS011;10727;43.600;1.444;2023-04-16T04:01:33;4.82;;;1.40;;
21138;SDS011;10727;43.600;1.444;2023-04-16T04:04:40;7.68;;;1.98;;
21138;SDS011;10727;43.600;1.444;2023-04-16T04:07:47;5.70;;;1.70;;
21138;SDS011;10727;43.600;1.444;2023-04-16T04:10:53;10.40;;;1.80;;
21138;SDS011;10727;43.600;1.444;2023-04-16T04:14:00;5.55;;;1.77;;
21138;SDS011;10727;43.600;1.444;2023-04-16T04:17:07;7.40;;;1.42;;
21138;SDS011;10727;43.600;1.444;2023-04-16T04:20:12;5.57;;;1.67;;
21138;SDS011;10727;43.600;1.444;2023-04-16T04:23:20;7.95;;;1.90;;
21138;SDS011;10727;43.600;1.444;2023-04-16T04:26:27;7.85;;;1.60;;
21138;SDS011;10727;43.600;1.444;2023-04-16T04:29:33;8.52;;;2.03;;
21138;SDS011;10727;43.600;1.444;2023-04-16T04:32:38;8.98;;;1.60;;
21138;SDS011;10727;43.600;1.444;2023-04-16T04:35:43;7.78;;;1.83;;
21138;SDS011;10727;43.600;1.444;2023-04-16T04:38:48;7.93;;;1.75;;
21138;SDS011;10727;43.600;1.444;2023-04-16T04:41:55;5.15;;;1.83;;
21138;SDS011;10727;43.600;1.444;2023-04-16T04:45:01;7.72;;;1.52;;
21138;SDS011;10727;43.600;1.444;2023-04-16T04:48:09;7.90;;;1.83;;
21138;SDS011;10727;43.600;1.444;2023-04-16T04:51:14;9.77;;;1.90;;
21138;SDS011;10727;43.600;1.444;2023-04-16T04:54:20;6.32;;;1.52;;
21138;SDS011;10727;43.600;1.444;2023-04-16T04:57:26;10.13;;;1.83;;
21138;SDS011;10727;43.600;1.444;2023-04-16T05:00:31;7.00;;;1.60;;
21138;SDS011;10727;43.600;1.444;2023-04-16T05:03:36;7.05;;;1.40;;
21138;SDS011;10727;43.600;1.444;2023-04-16T05:06:41;4.80;;;1.80;;
21138;SDS011;10727;43.600;1.444;2023-04-16T05:09:46;6.07;;;1.55;;
21138;SDS011;10727;43.600;1.444;2023-04-16T05:12:53;4.65;;;1.73;;
21138;SDS011;10727;43.600;1.444;2023-04-16T05:15:58;10.52;;;1.95;;
21138;SDS011;10727;43.600;1.444;2023-04-16T05:19:03;7.00;;;1.50;;
21138;SDS011;10727;43.600;1.444;2023-04-16T05:22:08;7.75;;;1.75;;
21138;SDS011;10727;43.600;1.444;2023-04-16T05:25:14;7.57;;;1.83;;
21138;SDS011;10727;43.600;1.444;2023-04-16T05:28:20;6.10;;;1.67;;
21138;SDS011;10727;43.600;1.444;2023-04-16T05:31:25;6.32;;;1.63;;
21138;SDS011;10727;43.600;1.444;2023-04-16T05:34:31;9.75;;;2.08;;
21138;SDS011;10727;43.600;1.444;2023-04-16T05:37:36;6.93;;;1.88;;
21138;SDS011;10727;43.600;1.444;2023-04-16T05:40:41;10.45;;;1.90;;
21138;SDS011;10727;43.600;1.444;2023-04-16T05:43:47;6.70;;;1.98;;
21138;SDS011;10727;43.600;1.444;2023-04-16T05:46:53;10.32;;;1.83;;
21138;SDS011;10727;43.600;1.444;2023-04-16T05:49:58;5.85;;;1.60;;
21138;SDS011;10727;43.600;1.444;2023-04-16T05:53:04;7.55;;;1.80;;
21138;SDS011;10727;43.600;1.444;2023-04-16T05:56:09;6.65;;;1.83;;
21138;SDS011;10727;43.600;1.444;2023-04-16T05:59:16;6.18;;;1.75;;
21138;SDS011;10727;43.600;1.444;2023-04-16T06:02:21;6.75;;;1.92;;
21138;SDS011;10727;43.600;1.444;2023-04-16T06:05:26;9.30;;;2.38;;
21138;SDS011;10727;43.600;1.444;2023-04-16T06:08:31;8.27;;;1.92;;
21138;SDS011;10727;43.600;1.444;2023-04-16T06:11:37;7.95;;;1.98;;
21138;SDS011;10727;43.600;1.444;2023-04-16T06:14:43;5.93;;;2.00;;
21138;SDS011;10727;43.600;1.444;2023-04-16T06:17:48;7.85;;;1.90;;
21138;SDS011;10727;43.600;1.444;2023-04-16T06:20:53;5.55;;;1.83;;
21138;SDS011;10727;43.600;1.444;2023-04-16T06:24:00;6.35;;;1.80;;
21138;SDS011;10727;43.600;1.444;2023-04-16T06:27:05;9.45;;;2.08;;
21138;SDS011;10727;43.600;1.444;2023-04-16T06:30:13;6.53;;;1.85;;
21138;SDS011;10727;43.600;1.444;2023-04-16T06:33:18;6.60;;;1.65;;
21138;SDS011;10727;43.600;1.444;2023-04-16T06:36:23;7.07;;;1.83;;
21138;SDS011;10727;43.600;1.444;2023-04-16T06:39:29;10.35;;;3.47;;
21138;SDS011;10727;43.600;1.444;2023-04-16T06:42:35;10.90;;;3.70;;
21138;SDS011;10727;43.600;1.444;2023-04-16T06:45:41;7.35;;;2.20;;
21138;SDS011;10727;43.600;1.444;2023-04-16T06:48:46;7.60;;;1.92;;
21138;SDS011;10727;43.600;1.444;2023-04-16T06:51:51;7.35;;;1.83;;
21138;SDS011;10727;43.600;1.444;2023-04-16T06:54:56;8.77;;;2.08;;
21138;SDS011;10727;43.600;1.444;2023-04-16T06:58:01;7.97;;;1.70;;
21138;SDS011;10727;43.600;1.444;2023-04-16T07:01:08;6.72;;;1.65;;
21138;SDS011;10727;43.600;1.444;2023-04-16T07:04:13;8.88;;;2.15;;
21138;SDS011;10727;43.600;1.444;2023-04-16T07:07:18;7.63;;;1.85;;
21138;SDS011;10727;43.600;1.444;2023-04-16T07:10:23;7.88;;;1.92;;
21138;SDS011;10727;43.600;1.444;2023-04-16T07:13:28;7.07;;;1.70;;
21138;SDS011;10727;43.600;1.444;2023-04-16T07:16:35;7.80;;;1.92;;
21138;SDS011;10727;43.600;1.444;2023-04-16T07:19:40;9.63;;;1.60;;
21138;SDS011;10727;43.600;1.444;2023-04-16T07:22:45;8.73;;;2.05;;
21138;SDS011;10727;43.600;1.444;2023-04-16T07:25:50;7.72;;;2.03;;
21138;SDS011;10727;43.600;1.444;2023-04-16T07:28:55;8.93;;;1.90;;
21138;SDS011;10727;43.600;1.444;2023-04-16T07:32:02;7.03;;;1.90;;
21138;SDS011;10727;43.600;1.444;2023-04-16T07:35:07;7.75;;;2.25;;
21138;SDS011;10727;43.600;1.444;2023-04-16T07:38:12;10.48;;;2.13;;
21138;SDS011;10727;43.600;1.444;2023-04-16T07:41:18;6.22;;;1.75;;
21138;SDS011;10727;43.600;1.444;2023-04-16T07:44:23;7.05;;;1.80;;
21138;SDS011;10727;43.600;1.444;2023-04-16T07:47:29;6.60;;;2.00;;
21138;SDS011;10727;43.600;1.444;2023-04-16T07:50:35;10.55;;;2.25;;
21138;SDS011;10727;43.600;1.444;2023-04-16T07:53:39;10.55;;;2.67;;
21138;SDS011;10727;43.600;1.444;2023-04-16T07:56:45;16.75;;;5.65;;
21138;SDS011;10727;43.600;1.444;2023-04-16T07:59:50;8.40;;;2.17;;
21138;SDS011;10727;43.600;1.444;2023-04-16T08:02:56;9.57;;;2.63;;
21138;SDS011;10727;43.600;1.444;2023-04-16T08:06:02;6.78;;;1.90;;
21138;SDS011;10727;43.600;1.444;2023-04-16T08:09:07;7.93;;;1.98;;
21138;SDS011;10727;43.600;1.444;2023-04-16T08:12:12;5.13;;;1.73;;
21138;SDS011;10727;43.600;1.444;2023-04-16T08:15:18;7.60;;;2.05;;
21138;SDS011;10727;43.600;1.444;2023-04-16T08:18:24;7.15;;;1.83;;
21138;SDS011;10727;43.600;1.444;2023-04-16T08:21:29;8.30;;;1.85;;
21138;SDS011;10727;43.600;1.444;2023-04-16T08:24:34;7.50;;;1.98;;
21138;SDS011;10727;43.600;1.444;2023-04-16T08:27:39;8.43;;;1.58;;
21138;SDS011;10727;43.600;1.444;2023-04-16T08:30:44;9.40;;;2.08;;
21138;SDS011;10727;43.600;1.444;2023-04-16T08:33:51;12.30;;;2.00;;
21138;SDS011;10727;43.600;1.444;2023-04-16T08:36:56;7.05;;;1.67;;
21138;SDS011;10727;43.600;1.444;2023-04-16T08:40:01;9.90;;;1.95;;
21138;SDS011;10727;43.600;1.444;2023-04-16T08:43:08;5.65;;;1.77;;
21138;SDS011;10727;43.600;1.444;2023-04-16T08:46:14;6.70;;;1.92;;
21138;SDS011;10727;43.600;1.444;2023-04-16T08:49:21;29.13;;;19.40;;
21138;SDS011;10727;43.600;1.444;2023-04-16T08:52:27;21.38;;;13.00;;
21138;SDS011;10727;43.600;1.444;2023-04-16T08:55:35;9.75;;;3.53;;
21138;SDS011;10727;43.600;1.444;2023-04-16T08:58:40;5.30;;;1.80;;
21138;SDS011;10727;43.600;1.444;2023-04-16T09:01:45;7.43;;;2.03;;
21138;SDS011;10727;43.600;1.444;2023-04-16T09:04:52;6.82;;;1.58;;
21138;SDS011;10727;43.600;1.444;2023-04-16T09:07:57;6.45;;;2.03;;
21138;SDS011;10727;43.600;1.444;2023-04-16T09:11:03;6.80;;;1.73;;
21138;SDS011;10727;43.600;1.444;2023-04-16T09:14:08;5.40;;;1.65;;
21138;SDS011;10727;43.600;1.444;2023-04-16T09:17:13;4.30;;;1.40;;
21138;SDS011;10727;43.600;1.444;2023-04-16T09:20:21;8.68;;;1.92;;
21138;SDS011;10727;43.600;1.444;2023-04-16T09:23:26;7.72;;;1.90;;
21138;SDS011;10727;43.600;1.444;2023-04-16T09:26:30;5.70;;;1.50;;
21138;SDS011;10727;43.600;1.444;2023-04-16T09:29:38;11.07;;;5.45;;
21138;SDS011;10727;43.600;1.444;2023-04-16T09:32:43;7.57;;;2.13;;
21138;SDS011;10727;43.600;1.444;2023-04-16T09:35:51;4.18;;;1.40;;
21138;SDS011;10727;43.600;1.444;2023-04-16T09:38:56;6.00;;;1.70;;
21138;SDS011;10727;43.600;1.444;2023-04-16T09:42:04;4.95;;;1.52;;
21138;SDS011;10727;43.600;1.444;2023-04-16T09:45:09;4.35;;;1.60;;
21138;SDS011;10727;43.600;1.444;2023-04-16T09:48:15;5.80;;;1.70;;
21138;SDS011;10727;43.600;1.444;2023-04-16T09:51:21;5.63;;;1.80;;
21138;SDS011;10727;43.600;1.444;2023-04-16T09:54:26;10.70;;;5.72;;
21138;SDS011;10727;43.600;1.444;2023-04-16T09:57:32;6.78;;;2.13;;
21138;SDS011;10727;43.600;1.444;2023-04-16T10:00:40;3.83;;;1.80;;
21138;SDS011;10727;43.600;1.444;2023-04-16T10:03:47;4.80;;;1.98;;
21138;SDS011;10727;43.600;1.444;2023-04-16T10:07:04;4.78;;;1.73;;
21138;SDS011;10727;43.600;1.444;2023-04-16T10:10:10;4.53;;;1.85;;
21138;SDS011;10727;43.600;1.444;2023-04-16T10:13:14;6.10;;;1.80;;
21138;SDS011;10727;43.600;1.444;2023-04-16T10:16:21;5.40;;;1.58;;
21138;SDS011;10727;43.600;1.444;2023-04-16T10:19:26;4.97;;;1.58;;
21138;SDS011;10727;43.600;1.444;2023-04-16T10:22:34;6.85;;;2.33;;
21138;SDS011;10727;43.600;1.444;2023-04-16T10:25:40;20.67;;;11.90;;
21138;SDS011;10727;43.600;1.444;2023-04-16T10:28:46;8.93;;;4.25;;
21138;SDS011;10727;43.600;1.444;2023-04-16T10:31:51;9.95;;;4.55;;
21138;SDS011;10727;43.600;1.444;2023-04-16T10:34:57;7.95;;;3.55;;
21138;SDS011;10727;43.600;1.444;2023-04-16T10:41:24;7.72;;;2.70;;
21138;SDS011;10727;43.600;1.444;2023-04-16T10:44:29;3.78;;;2.13;;
21138;SDS011;10727;43.600;1.444;2023-04-16T10:47:38;8.35;;;2.67;;
21138;SDS011;10727;43.600;1.444;2023-04-16T10:50:52;6.43;;;2.22;;
21138;SDS011;10727;43.600;1.444;2023-04-16T10:54:01;5.55;;;2.35;;
21138;SDS011;10727;43.600;1.444;2023-04-16T10:57:09;6.00;;;1.83;;
21138;SDS011;10727;43.600;1.444;2023-04-16T11:00:20;4.45;;;2.28;;
21138;SDS011;10727;43.600;1.444;2023-04-16T11:03:28;5.05;;;2.00;;
21138;SDS011;10727;43.600;1.444;2023-04-16T11:06:34;5.22;;;2.08;;
21138;SDS011;10727;43.600;1.444;2023-04-16T11:09:49;6.18;;;2.22;;
21138;SDS011;10727;43.600;1.444;2023-04-16T11:12:56;6.35;;;2.20;;
21138;SDS011;10727;43.600;1.444;2023-04-16T11:16:01;9.68;;;2.72;;
21138;SDS011;10727;43.600;1.444;2023-04-16T11:19:06;5.82;;;2.40;;
21138;SDS011;10727;43.600;1.444;2023-04-16T11:22:11;6.07;;;1.90;;
21138;SDS011;10727;43.600;1.444;2023-04-16T11:25:18;5.15;;;2.30;;
21138;SDS011;10727;43.600;1.444;2023-04-16T11:28:32;3.97;;;2.38;;
21138;SDS011;10727;43.600;1.444;2023-04-16T11:31:37;4.40;;;1.98;;
21138;SDS011;10727;43.600;1.444;2023-04-16T11:34:42;4.38;;;1.90;;
21138;SDS011;10727;43.600;1.444;2023-04-16T11:37:48;6.40;;;2.25;;
21138;SDS011;10727;43.600;1.444;2023-04-16T11:40:53;5.60;;;2.13;;
21138;SDS011;10727;43.600;1.444;2023-04-16T11:43:59;6.57;;;2.20;;
21138;SDS011;10727;43.600;1.444;2023-04-16T11:47:05;6.07;;;2.30;;
21138;SDS011;10727;43.600;1.444;2023-04-16T11:50:17;6.13;;;2.47;;
21138;SDS011;10727;43.600;1.444;2023-04-16T11:53:22;4.65;;;2.58;;
21138;SDS011;10727;43.600;1.444;2023-04-16T11:56:28;6.25;;;2.70;;
21138;SDS011;10727;43.600;1.444;2023-04-16T11:59:35;5.85;;;2.22;;
21138;SDS011;10727;43.600;1.444;2023-04-16T12:02:41;5.13;;;2.30;;
21138;SDS011;10727;43.600;1.444;2023-04-16T12:05:46;3.38;;;2.15;;
21138;SDS011;10727;43.600;1.444;2023-04-16T12:08:52;8.15;;;2.42;;
21138;SDS011;10727;43.600;1.444;2023-04-16T12:11:56;9.20;;;2.30;;
21138;SDS011;10727;43.600;1.444;2023-04-16T12:15:03;6.55;;;2.47;;
21138;SDS011;10727;43.600;1.444;2023-04-16T12:18:09;5.13;;;2.00;;
21138;SDS011;10727;43.600;1.444;2023-04-16T12:21:14;4.90;;;2.17;;
21138;SDS011;10727;43.600;1.444;2023-04-16T12:24:20;3.63;;;1.80;;
21138;SDS011;10727;43.600;1.444;2023-04-16T12:27:39;3.65;;;2.00;;
21138;SDS011;10727;43.600;1.444;2023-04-16T12:30:49;4.18;;;2.03;;
21138;SDS011;10727;43.600;1.444;2023-04-16T12:34:00;5.32;;;1.67;;
21138;SDS011;10727;43.600;1.444;2023-04-16T12:37:06;4.80;;;1.70;;
21138;SDS011;10727;43.600;1.444;2023-04-16T12:40:13;3.58;;;1.90;;
21138;SDS011;10727;43.600;1.444;2023-04-16T12:43:20;3.92;;;1.90;;
21138;SDS011;10727;43.600;1.444;2023-04-16T12:46:26;2.45;;;1.60;;
21138;SDS011;10727;43.600;1.444;2023-04-16T12:49:32;3.00;;;1.60;;
21138;SDS011;10727;43.600;1.444;2023-04-16T12:52:37;6.07;;;1.80;;
21138;SDS011;10727;43.600;1.444;2023-04-16T12:55:42;3.45;;;1.73;;
21138;SDS011;10727;43.600;1.444;2023-04-16T12:58:47;19.88;;;15.35;;
21138;SDS011;10727;43.600;1.444;2023-04-16T13:01:55;7.25;;;3.95;;
21138;SDS011;10727;43.600;1.444;2023-04-16T13:05:00;4.38;;;1.75;;
21138;SDS011;10727;43.600;1.444;2023-04-16T13:08:06;7.68;;;1.70;;
21138;SDS011;10727;43.600;1.444;2023-04-16T13:11:11;4.32;;;1.60;;
21138;SDS011;10727;43.600;1.444;2023-04-16T13:14:16;3.20;;;1.63;;
21138;SDS011;10727;43.600;1.444;2023-04-16T13:17:22;3.88;;;1.60;;
21138;SDS011;10727;43.600;1.444;2023-04-16T13:20:27;3.45;;;1.77;;
21138;SDS011;10727;43.600;1.444;2023-04-16T13:23:33;2.72;;;1.55;;
21138;SDS011;10727;43.600;1.444;2023-04-16T13:26:38;2.03;;;1.40;;
21138;SDS011;10727;43.600;1.444;2023-04-16T13:29:43;3.83;;;1.42;;
21138;SDS011;10727;43.600;1.444;2023-04-16T13:32:50;5.57;;;2.20;;
21138;SDS011;10727;43.600;1.444;2023-04-16T13:35:56;3.67;;;1.40;;
21138;SDS011;10727;43.600;1.444;2023-04-16T13:39:01;3.95;;;1.75;;
21138;SDS011;10727;43.600;1.444;2023-04-16T13:42:12;4.82;;;1.42;;
21138;SDS011;10727;43.600;1.444;2023-04-16T13:45:17;3.85;;;1.60;;
21138;SDS011;10727;43.600;1.444;2023-04-16T13:48:24;1.65;;;1.20;;
21138;SDS011;10727;43.600;1.444;2023-04-16T13:51:30;1.55;;;1.17;;
21138;SDS011;10727;43.600;1.444;2023-04-16T13:54:35;2.35;;;1.85;;
21138;SDS011;10727;43.600;1.444;2023-04-16T13:57:40;3.17;;;1.42;;
21138;SDS011;10727;43.600;1.444;2023-04-16T14:00:47;3.15;;;1.38;;
21138;SDS011;10727;43.600;1.444;2023-04-16T14:03:53;2.95;;;1.60;;
21138;SDS011;10727;43.600;1.444;2023-04-16T14:06:58;2.30;;;1.30;;
21138;SDS011;10727;43.600;1.444;2023-04-16T14:10:04;3.05;;;1.40;;
21138;SDS011;10727;43.600;1.444;2023-04-16T14:13:09;2.80;;;1.40;;
21138;SDS011;10727;43.600;1.444;2023-04-16T14:16:15;2.53;;;1.55;;
21138;SDS011;10727;43.600;1.444;2023-04-16T14:19:22;2.80;;;1.50;;
21138;SDS011;10727;43.600;1.444;2023-04-16T14:22:27;1.90;;;1.15;;
21138;SDS011;10727;43.600;1.444;2023-04-16T14:25:32;2.10;;;1.45;;
21138;SDS011;10727;43.600;1.444;2023-04-16T14:28:37;2.75;;;1.45;;
21138;SDS011;10727;43.600;1.444;2023-04-16T14:31:42;3.50;;;1.75;;
21138;SDS011;10727;43.600;1.444;2023-04-16T14:34:49;3.08;;;1.48;;
21138;SDS011;10727;43.600;1.444;2023-04-16T14:37:55;2.35;;;1.90;;
21138;SDS011;10727;43.600;1.444;2023-04-16T14:41:00;32.90;;;22.55;;
21138;SDS011;10727;43.600;1.444;2023-04-16T14:44:05;36.65;;;22.48;;
21138;SDS011;10727;43.600;1.444;2023-04-16T14:47:10;45.15;;;29.67;;
21138;SDS011;10727;43.600;1.444;2023-04-16T14:50:18;10.27;;;7.13;;
21138;SDS011;10727;43.600;1.444;2023-04-16T14:53:23;4.55;;;3.30;;
21138;SDS011;10727;43.600;1.444;2023-04-16T14:56:29;6.13;;;2.10;;
21138;SDS011;10727;43.600;1.444;2023-04-16T14:59:34;14.15;;;9.57;;
21138;SDS011;10727;43.600;1.444;2023-04-16T15:02:39;46.55;;;32.53;;
21138;SDS011;10727;43.600;1.444;2023-04-16T15:05:45;35.28;;;22.70;;
21138;SDS011;10727;43.600;1.444;2023-04-16T15:08:56;16.52;;;11.27;;
21138;SDS011;10727;43.600;1.444;2023-04-16T15:12:02;7.10;;;2.70;;
21138;SDS011;10727;43.600;1.444;2023-04-16T15:15:08;6.07;;;3.55;;
21138;SDS011;10727;43.600;1.444;2023-04-16T15:18:13;8.70;;;6.18;;
21138;SDS011;10727;43.600;1.444;2023-04-16T15:21:21;56.92;;;36.83;;
21138;SDS011;10727;43.600;1.444;2023-04-16T15:24:26;62.38;;;44.58;;
21138;SDS011;10727;43.600;1.444;2023-04-16T15:27:31;12.00;;;6.85;;
21138;SDS011;10727;43.600;1.444;2023-04-16T15:30:36;9.40;;;2.38;;
21138;SDS011;10727;43.600;1.444;2023-04-16T15:33:41;6.80;;;1.80;;
21138;SDS011;10727;43.600;1.444;2023-04-16T15:36:47;6.70;;;2.17;;
21138;SDS011;10727;43.600;1.444;2023-04-16T15:39:52;4.13;;;1.80;;
21138;SDS011;10727;43.600;1.444;2023-04-16T15:42:58;62.35;;;39.90;;
21138;SDS011;10727;43.600;1.444;2023-04-16T15:46:03;107.10;;;64.97;;
21138;SDS011;10727;43.600;1.444;2023-04-16T15:49:10;32.60;;;21.05;;
21138;SDS011;10727;43.600;1.444;2023-04-16T15:52:16;17.45;;;10.57;;
21138;SDS011;10727;43.600;1.444;2023-04-16T15:55:22;4.75;;;3.03;;
21138;SDS011;10727;43.600;1.444;2023-04-16T15:58:28;5.07;;;1.83;;
21138;SDS011;10727;43.600;1.444;2023-04-16T16:01:33;2.83;;;1.40;;
21138;SDS011;10727;43.600;1.444;2023-04-16T16:04:42;3.03;;;1.60;;
21138;SDS011;10727;43.600;1.444;2023-04-16T16:07:49;3.42;;;1.77;;
21138;SDS011;10727;43.600;1.444;2023-04-16T16:10:55;8.63;;;6.03;;
21138;SDS011;10727;43.600;1.444;2023-04-16T16:14:00;5.60;;;3.47;;
21138;SDS011;10727;43.600;1.444;2023-04-16T16:17:05;4.07;;;2.03;;
21138;SDS011;10727;43.600;1.444;2023-04-16T16:20:10;3.95;;;1.95;;
21138;SDS011;10727;43.600;1.444;2023-04-16T16:23:18;6.00;;;2.08;;
21138;SDS011;10727;43.600;1.444;2023-04-16T16:26:23;2.22;;;1.50;;
21138;SDS011;10727;43.600;1.444;2023-04-16T16:29:29;2.38;;;1.50;;
21138;SDS011;10727;43.600;1.444;2023-04-16T16:32:34;2.65;;;1.10;;
21138;SDS011;10727;43.600;1.444;2023-04-16T16:35:42;3.50;;;1.42;;
21138;SDS011;10727;43.600;1.444;2023-04-16T16:38:49;3.22;;;1.17;;
21138;SDS011;10727;43.600;1.444;2023-04-16T16:41:54;2.55;;;1.30;;
21138;SDS011;10727;43.600;1.444;2023-04-16T16:44:59;1.55;;;1.20;;
21138;SDS011;10727;43.600;1.444;2023-04-16T16:48:07;3.03;;;1.30;;
21138;SDS011;10727;43.600;1.444;2023-04-16T16:51:12;2.25;;;1.63;;
21138;SDS011;10727;43.600;1.444;2023-04-16T16:54:22;1.92;;;1.52;;
21138;SDS011;10727;43.600;1.444;2023-04-16T16:57:27;2.25;;;1.45;;
21138;SDS011;10727;43.600;1.444;2023-04-16T17:00:32;2.47;;;1.23;;
21138;SDS011;10727;43.600;1.444;2023-04-16T17:03:37;2.47;;;1.35;;
21138;SDS011;10727;43.600;1.444;2023-04-16T17:06:42;4.00;;;1.50;;
21138;SDS011;10727;43.600;1.444;2023-04-16T17:09:48;1.90;;;1.40;;
21138;SDS011;10727;43.600;1.444;2023-04-16T17:12:54;2.50;;;1.27;;
21138;SDS011;10727;43.600;1.444;2023-04-16T17:15:59;2.30;;;1.42;;
21138;SDS011;10727;43.600;1.444;2023-04-16T17:19:04;4.93;;;1.90;;
21138;SDS011;10727;43.600;1.444;2023-04-16T17:22:09;3.53;;;1.50;;
21138;SDS011;10727;43.600;1.444;2023-04-16T17:25:16;2.40;;;1.80;;
21138;SDS011;10727;43.600;1.444;2023-04-16T17:28:21;3.63;;;1.95;;
21138;SDS011;10727;43.600;1.444;2023-04-16T17:31:27;9.50;;;6.47;;
21138;SDS011;10727;43.600;1.444;2023-04-16T17:34:33;9.80;;;6.65;;
21138;SDS011;10727;43.600;1.444;2023-04-16T17:37:38;6.28;;;3.08;;
21138;SDS011;10727;43.600;1.444;2023-04-16T17:40:44;2.67;;;1.85;;
21138;SDS011;10727;43.600;1.444;2023-04-16T17:43:49;3.70;;;1.90;;
21138;SDS011;10727;43.600;1.444;2023-04-16T17:46:54;3.70;;;1.60;;
21138;SDS011;10727;43.600;1.444;2023-04-16T17:49:59;3.30;;;1.58;;
21138;SDS011;10727;43.600;1.444;2023-04-16T17:53:05;4.53;;;1.88;;
21138;SDS011;10727;43.600;1.444;2023-04-16T17:56:11;3.08;;;1.80;;
21138;SDS011;10727;43.600;1.444;2023-04-16T17:59:16;5.18;;;1.90;;
21138;SDS011;10727;43.600;1.444;2023-04-16T18:02:21;4.30;;;1.80;;
21138;SDS011;10727;43.600;1.444;2023-04-16T18:05:27;2.70;;;1.60;;
21138;SDS011;10727;43.600;1.444;2023-04-16T18:08:32;2.00;;;1.48;;
21138;SDS011;10727;43.600;1.444;2023-04-16T18:11:40;4.25;;;1.60;;
21138;SDS011;10727;43.600;1.444;2023-04-16T18:14:45;2.88;;;1.70;;
21138;SDS011;10727;43.600;1.444;2023-04-16T18:17:50;3.55;;;1.50;;
21138;SDS011;10727;43.600;1.444;2023-04-16T18:20:56;5.72;;;2.90;;
21138;SDS011;10727;43.600;1.444;2023-04-16T18:24:01;18.33;;;13.02;;
21138;SDS011;10727;43.600;1.444;2023-04-16T18:27:08;6.30;;;2.40;;
21138;SDS011;10727;43.600;1.444;2023-04-16T18:30:13;5.82;;;2.00;;
21138;SDS011;10727;43.600;1.444;2023-04-16T18:33:20;5.35;;;1.70;;
21138;SDS011;10727;43.600;1.444;2023-04-16T18:36:25;2.58;;;1.88;;